Time;durP1;ratioP1;P1;durP2;ratioP2;P2;SDS_P1;SDS_P2;PMS_P1;PMS_P2;Temp;Humidity;BMP_temperature;BMP_pressure;BME280_temperature;BME280_humidity;BME280_pressure;Samples;Min_cycle;Max_cycle;Signal;HPM_P1;HPM_P2
2021/06/08 05:53:27;;;;;;;25.03;22.43;;;18.60;1.00;;;;;;5303530;23;20858;-63
2021/06/08 05:55:55;;;;;;;24.80;22.30;;;18.80;1.00;;;;;;4948362;28;20551;-64
2021/06/08 05:58:31;;;;;;;26.13;23.37;;;19.00;1.00;;;;;;4948805;29;21001;-64
2021/06/08 06:00:58;;;;;;;26.80;22.17;;;19.10;1.00;;;;;;4946162;29;20451;-63
2021/06/08 06:03:26;;;;;;;24.67;22.27;;;19.20;1.00;;;;;;4952677;29;20606;-63
2021/06/08 06:05:52;;;;;;;23.27;20.80;;;19.40;1.00;;;;;;4947352;29;20476;-57
2021/06/08 06:08:17;;;;;;;24.40;21.40;;;19.40;1.00;;;;;;4952115;29;20447;-63
2021/06/08 06:10:44;;;;;;;23.87;21.37;;;19.60;1.00;;;;;;4936997;28;20449;-63
2021/06/08 06:13:18;;;;;;;25.00;22.40;;;19.60;1.00;;;;;;4942937;28;20200;-62
2021/06/08 06:15:47;;;;;;;24.40;21.90;;;19.70;99.90;;;;;;4949621;28;20439;-61
2021/06/08 06:18:16;;;;;;;23.73;21.10;;;19.70;99.90;;;;;;4953303;28;20454;-62
2021/06/08 06:20:42;;;;;;;24.03;21.60;;;19.90;99.90;;;;;;4942854;28;20526;-63
2021/06/08 06:23:09;;;;;;;23.33;20.97;;;20.00;99.90;;;;;;4951415;29;20996;-63
2021/06/08 06:25:35;;;;;;;23.40;21.10;;;20.10;99.90;;;;;;4947707;28;20475;-63
2021/06/08 06:28:01;;;;;;;25.07;22.60;;;20.10;99.90;;;;;;4952675;29;20472;-63
2021/06/08 06:30:28;;;;;;;23.87;21.37;;;20.10;1.00;;;;;;4952088;29;20448;-63
2021/06/08 06:32:53;;;;;;;24.70;22.20;;;20.00;1.00;;;;;;4951801;29;20632;-63
2021/06/08 06:35:19;;;;;;;27.07;22.57;;;20.00;1.00;;;;;;4951684;29;20487;-63
2021/06/08 06:37:46;;;;;;;23.47;21.00;;;19.80;1.00;;;;;;4948911;28;20227;-61
2021/06/08 06:40:16;;;;;;;24.07;21.67;;;19.80;99.90;;;;;;4942106;28;20549;-62
2021/06/08 06:42:47;;;;;;;24.80;22.13;;;19.80;6.80;;;;;;4949887;29;20829;-64
2021/06/08 06:45:20;;;;;;;23.67;21.37;;;19.80;99.90;;;;;;4942659;28;20861;-62
2021/06/08 06:47:47;;;;;;;24.23;21.73;;;19.80;99.90;;;;;;4947442;28;20456;-63
2021/06/08 06:50:13;;;;;;;22.90;20.43;;;20.00;99.90;;;;;;4952662;29;20433;-63
2021/06/08 06:52:39;;;;;;;23.57;21.20;;;19.90;99.90;;;;;;4950130;28;20470;-62
2021/06/08 06:55:08;;;;;;;23.60;21.23;;;20.00;99.90;;;;;;4947273;28;20518;-64
2021/06/08 06:57:34;;;;;;;24.30;21.70;;;20.00;87.80;;;;;;4933797;29;20432;-65
2021/06/08 07:00:01;;;;;;;24.00;21.50;;;19.90;99.90;;;;;;4952417;28;20435;-64
2021/06/08 07:02:28;;;;;;;26.33;21.53;;;20.00;99.90;;;;;;4942879;28;20509;-64
2021/06/08 07:04:54;;;;;;;23.50;21.13;;;20.10;43.50;;;;;;4945224;28;20569;-65
2021/06/08 07:07:21;;;;;;;22.93;20.63;;;20.20;1.00;;;;;;4944282;28;20444;-64
2021/06/08 07:09:50;;;;;;;22.20;20.00;;;20.20;1.00;;;;;;4949613;28;20958;-63
2021/06/08 07:12:23;;;;;;;22.40;20.27;;;20.20;1.00;;;;;;4942520;29;20957;-63
2021/06/08 07:14:49;;;;;;;23.33;21.13;;;20.20;1.00;;;;;;4950337;29;20456;-63
2021/06/08 07:17:17;;;;;;;24.13;21.73;;;20.20;1.00;;;;;;4946662;28;20429;-65
2021/06/08 07:19:44;;;;;;;23.03;20.53;;;20.30;99.90;;;;;;4945541;28;20437;-63
2021/06/08 07:22:10;;;;;;;23.43;21.03;;;20.20;1.00;;;;;;4943299;28;20459;-62
2021/06/08 07:24:40;;;;;;;23.30;21.00;;;20.20;1.00;;;;;;4951764;28;20570;-63
2021/06/08 07:27:06;;;;;;;24.10;21.80;;;20.30;1.00;;;;;;4951985;29;20941;-59
2021/06/08 07:29:32;;;;;;;25.83;22.27;;;20.40;11.30;;;;;;4951900;29;20425;-62
2021/06/08 07:32:11;;;;;;;23.53;21.10;;;20.40;99.90;;;;;;4951350;29;20483;-62
2021/06/08 07:34:44;;;;;;;26.67;20.63;;;20.50;99.90;;;;;;4952024;29;20472;-63
2021/06/08 07:37:17;;;;;;;23.83;21.37;;;20.60;99.90;;;;;;4948201;28;20999;-60
2021/06/08 07:39:54;;;;;;;24.10;21.70;;;20.70;1.00;;;;;;4946542;28;20467;-62
2021/06/08 07:42:32;;;;;;;21.67;19.37;;;20.80;1.00;;;;;;4939116;28;21937;-62
2021/06/08 07:45:05;;;;;;;24.83;22.23;;;21.00;1.00;;;;;;4944498;28;20473;-64
2021/06/08 07:47:31;;;;;;;21.23;19.00;;;21.00;99.90;;;;;;4957478;28;20921;-63
2021/06/08 07:49:59;;;;;;;22.33;20.10;;;21.10;1.00;;;;;;4951340;28;21380;-63
2021/06/08 07:52:26;;;;;;;23.17;20.90;;;21.10;1.00;;;;;;4950909;29;21057;-63
2021/06/08 07:54:52;;;;;;;22.60;20.30;;;21.10;99.90;;;;;;4951309;29;20495;-63
2021/06/08 07:57:19;;;;;;;22.43;20.33;;;21.20;99.90;;;;;;4950378;29;20441;-63
2021/06/08 07:59:45;;;;;;;22.83;20.43;;;21.30;1.00;;;;;;4951573;29;20883;-63
2021/06/08 08:02:11;;;;;;;23.33;20.87;;;21.40;99.90;;;;;;4950121;29;20440;-63
2021/06/08 08:04:46;;;;;;;22.50;20.17;;;21.50;1.00;;;;;;4946175;28;20846;-62
2021/06/08 08:07:13;;;;;;;21.73;19.53;;;21.60;1.00;;;;;;4950236;29;20460;-59
2021/06/08 08:09:38;;;;;;;20.40;18.50;;;21.50;1.00;;;;;;4948730;29;20455;-63
2021/06/08 08:12:05;;;;;;;21.70;19.60;;;21.60;99.90;;;;;;4951382;29;20433;-62
2021/06/08 08:14:31;;;;;;;24.30;21.17;;;21.70;99.90;;;;;;4951172;29;20185;-63
2021/06/08 08:16:57;;;;;;;20.13;18.33;;;21.80;1.00;;;;;;4937685;29;20500;-56
2021/06/08 08:19:24;;;;;;;19.97;18.03;;;21.80;1.00;;;;;;4948923;29;20950;-63
2021/06/08 08:21:51;;;;;;;19.90;17.80;;;22.00;99.90;;;;;;4951755;29;20533;-62
2021/06/08 08:24:17;;;;;;;28.10;20.70;;;22.20;99.90;;;;;;4951254;29;20555;-63
2021/06/08 08:26:42;;;;;;;20.83;18.90;;;22.30;1.00;;;;;;4951426;29;20435;-63
2021/06/08 08:29:09;;;;;;;20.30;18.30;;;22.40;99.90;;;;;;4944987;29;20448;-63
2021/06/08 08:31:34;;;;;;;20.80;18.77;;;22.40;99.90;;;;;;4951281;29;20233;-63
2021/06/08 08:34:00;;;;;;;20.47;18.50;;;22.40;31.60;;;;;;4951174;29;20931;-63
2021/06/08 08:36:29;;;;;;;20.20;18.40;;;22.40;1.00;;;;;;4945638;29;20232;-62
2021/06/08 08:38:56;;;;;;;19.63;17.73;;;22.50;52.80;;;;;;4950035;29;20653;-62
2021/06/08 08:41:22;;;;;;;19.17;17.17;;;22.60;1.00;;;;;;4951370;29;20436;-59
2021/06/08 08:43:50;;;;;;;20.67;18.70;;;22.80;1.00;;;;;;4951142;29;20464;-63
2021/06/08 08:46:18;;;;;;;19.30;17.47;;;22.90;1.00;;;;;;4946054;28;20487;-63
2021/06/08 08:48:45;;;;;;;19.83;17.93;;;23.10;99.90;;;;;;4945893;29;20424;-63
2021/06/08 08:51:12;;;;;;;21.07;19.10;;;23.20;99.90;;;;;;4950816;29;20437;-63
2021/06/08 08:53:39;;;;;;;20.63;18.73;;;23.40;99.90;;;;;;4943160;29;21324;-63
2021/06/08 08:56:05;;;;;;;19.90;18.00;;;23.50;99.90;;;;;;4951112;29;20451;-63
2021/06/08 08:58:33;;;;;;;20.93;18.83;;;23.70;99.90;;;;;;4950738;28;20491;-63
2021/06/08 09:01:00;;;;;;;19.20;17.50;;;23.80;99.90;;;;;;4949457;29;20188;-63
2021/06/08 09:03:26;;;;;;;20.07;18.30;;;23.90;99.90;;;;;;4950960;29;20433;-63
2021/06/08 09:05:58;;;;;;;19.97;18.13;;;24.10;99.90;;;;;;4949866;29;20895;-63
2021/06/08 09:08:24;;;;;;;21.37;19.47;;;24.40;35.80;;;;;;4948637;29;20524;-63
2021/06/08 09:10:50;;;;;;;19.83;18.00;;;24.70;1.00;;;;;;4943441;29;20507;-64
2021/06/08 09:13:17;;;;;;;19.47;17.87;;;25.20;1.00;;;;;;4949126;29;20437;-63
2021/06/08 09:15:43;;;;;;;21.00;19.10;;;25.50;1.00;;;;;;4945816;28;20444;-63
2021/06/08 09:18:10;;;;;;;19.47;17.87;;;25.70;1.00;;;;;;4954890;29;20428;-62
2021/06/08 09:20:36;;;;;;;19.97;18.30;;;26.00;1.00;;;;;;4953013;29;21207;-60
2021/06/08 09:23:07;;;;;;;21.03;19.03;;;26.20;1.00;;;;;;4954984;29;20464;-63
2021/06/08 09:25:38;;;;;;;20.10;18.50;;;26.50;1.00;;;;;;4953815;29;20486;-62
2021/06/08 09:28:23;;;;;;;19.97;18.20;;;27.10;88.40;;;;;;4954203;29;20428;-63
2021/06/08 09:31:03;;;;;;;20.20;18.60;;;27.60;86.30;;;;;;4951763;29;20503;-63
2021/06/08 09:33:42;;;;;;;18.83;17.23;;;28.20;83.20;;;;;;4954827;29;20455;-63
2021/06/08 09:36:14;;;;;;;20.73;18.97;;;28.80;79.30;;;;;;4953522;29;20523;-63
2021/06/08 09:38:45;;;;;;;20.07;18.00;;;29.30;76.30;;;;;;4954492;28;20425;-63
2021/06/08 09:41:27;;;;;;;20.57;18.87;;;29.50;69.80;;;;;;4953907;29;21190;-63
2021/06/08 09:43:53;;;;;;;19.80;18.20;;;29.60;66.60;;;;;;4955565;28;21274;-63
2021/06/08 09:46:20;;;;;;;18.70;17.37;;;29.90;66.50;;;;;;4950859;28;20444;-63
2021/06/08 09:48:58;;;;;;;20.35;18.75;;;29.90;65.30;;;;;;4952791;28;20269;-62
2021/06/08 09:51:25;;;;;;;20.17;18.50;;;29.90;62.20;;;;;;4948501;28;20208;-63
2021/06/08 09:53:52;;;;;;;22.13;20.37;;;29.90;62.70;;;;;;4953992;29;20519;-61
2021/06/08 09:56:21;;;;;;;19.50;18.03;;;29.80;61.00;;;;;;4952968;28;21021;-62
2021/06/08 09:58:52;;;;;;;22.23;20.00;;;29.90;63.10;;;;;;4952530;29;20425;-62
2021/06/08 10:01:23;;;;;;;20.00;18.50;;;30.20;60.60;;;;;;4947450;28;20492;-63
2021/06/08 10:03:54;;;;;;;20.53;18.97;;;30.50;58.90;;;;;;4947087;28;20436;-63
2021/06/08 10:06:19;;;;;;;21.00;19.27;;;31.00;59.00;;;;;;4953462;28;20428;-63
2021/06/08 10:08:58;;;;;;;19.87;18.37;;;31.50;55.60;;;;;;4951606;28;20441;-64
2021/06/08 10:11:29;;;;;;;20.90;19.20;;;31.80;55.00;;;;;;4950277;29;20188;-63
2021/06/08 10:14:17;;;;;;;19.43;18.03;;;32.00;52.60;;;;;;4952328;28;20940;-63
2021/06/08 10:16:44;;;;;;;19.03;17.53;;;32.00;53.90;;;;;;4952636;28;20432;-63
2021/06/08 10:19:10;;;;;;;20.20;18.70;;;32.40;53.20;;;;;;4933522;29;21066;-63
2021/06/08 10:21:37;;;;;;;20.30;18.73;;;32.50;51.60;;;;;;4951060;28;20528;-64
2021/06/08 10:24:08;;;;;;;21.40;19.40;;;32.90;49.70;;;;;;4950171;28;20469;-62
2021/06/08 10:26:35;;;;;;;18.73;17.23;;;32.70;99.90;;;;;;4946184;28;20453;-62
2021/06/08 10:29:07;;;;;;;21.40;19.50;;;32.50;99.90;;;;;;4952360;28;20935;-64
2021/06/08 10:31:37;;;;;;;21.97;20.37;;;32.50;99.90;;;;;;4951547;28;20436;-63
2021/06/08 10:34:06;;;;;;;22.27;20.50;;;32.30;99.90;;;;;;4952324;29;20472;-62
2021/06/08 10:36:32;;;;;;;21.60;19.80;;;32.10;99.90;;;;;;4949001;28;20989;-62
2021/06/08 10:38:59;;;;;;;21.50;19.73;;;31.70;99.90;;;;;;4952340;28;20503;-63
2021/06/08 10:41:25;;;;;;;21.53;19.73;;;31.40;99.90;;;;;;4950227;28;20425;-65
2021/06/08 10:43:50;;;;;;;20.73;18.93;;;31.40;99.90;;;;;;4949692;28;21247;-65
2021/06/08 10:46:33;;;;;;;19.97;18.20;;;31.40;99.90;;;;;;4950267;28;20538;-65
2021/06/08 10:48:59;;;;;;;20.37;18.67;;;32.00;99.90;;;;;;4949236;28;20487;-64
2021/06/08 10:51:27;;;;;;;17.80;16.50;;;32.50;99.90;;;;;;4949986;28;20519;-63
2021/06/08 10:53:54;;;;;;;21.23;19.53;;;33.10;99.90;;;;;;4950313;28;20481;-65
2021/06/08 10:56:32;;;;;;;18.30;17.00;;;33.70;99.90;;;;;;4951823;29;20420;-65
2021/06/08 10:58:57;;;;;;;17.50;16.30;;;34.30;99.90;;;;;;4949113;28;20461;-65
2021/06/08 11:01:43;;;;;;;19.00;17.70;;;34.10;99.90;;;;;;4948677;28;20520;-65
2021/06/08 11:04:22;;;;;;;16.77;15.50;;;34.70;99.90;;;;;;4950524;28;20225;-66
2021/06/08 11:07:07;;;;;;;18.00;16.70;;;34.90;99.90;;;;;;4950749;28;20461;-64
2021/06/08 11:09:35;;;;;;;17.50;16.30;;;35.40;99.90;;;;;;4948478;28;20437;-64
2021/06/08 11:12:21;;;;;;;17.20;16.10;;;36.00;99.90;;;;;;4951934;29;20421;-64
2021/06/08 11:14:56;;;;;;;17.90;16.43;;;35.50;99.90;;;;;;4950698;28;20507;-64
2021/06/08 11:17:39;;;;;;;16.30;15.30;;;35.70;99.90;;;;;;4951406;28;20949;-63
2021/06/08 11:20:06;;;;;;;18.20;16.80;;;35.90;99.90;;;;;;4949792;28;20436;-64
2021/06/08 11:22:32;;;;;;;17.40;16.20;;;36.40;99.90;;;;;;4947855;28;20440;-63
2021/06/08 11:24:58;;;;;;;16.37;15.17;;;36.70;99.90;;;;;;4949605;28;21046;-64
2021/06/08 11:27:56;;;;;;;15.90;14.90;;;36.90;99.90;;;;;;4949367;28;20189;-64
2021/06/08 11:30:27;;;;;;;15.47;14.50;;;36.80;99.90;;;;;;4950923;28;20888;-62
2021/06/08 11:32:53;;;;;;;19.40;18.00;;;36.90;99.90;;;;;;4951430;28;20449;-65
2021/06/08 11:35:29;;;;;;;17.73;16.53;;;37.00;99.90;;;;;;4947475;28;20515;-63
2021/06/08 11:38:07;;;;;;;15.30;14.30;;;37.00;99.90;;;;;;4948453;28;20193;-65
2021/06/08 11:40:36;;;;;;;15.17;14.27;;;37.70;99.90;;;;;;4938699;28;20437;-63
2021/06/08 11:43:04;;;;;;;15.23;14.13;;;37.90;99.90;;;;;;4952538;28;20424;-63
2021/06/08 11:45:31;;;;;;;14.07;13.00;;;37.70;99.90;;;;;;4948038;28;20523;-63
2021/06/08 11:47:57;;;;;;;13.70;12.80;;;37.70;99.90;;;;;;4947748;28;20437;-63
2021/06/08 11:50:44;;;;;;;15.33;14.33;;;38.40;99.90;;;;;;4938554;28;20451;-65
2021/06/08 11:53:11;;;;;;;15.80;14.80;;;38.30;99.90;;;;;;4937909;28;20391;-60
2021/06/08 11:55:37;;;;;;;15.90;14.90;;;37.30;99.90;;;;;;4935825;28;20568;-63
2021/06/08 11:58:04;;;;;;;15.80;14.80;;;36.30;99.90;;;;;;4938093;29;20188;-64
2021/06/08 12:00:53;;;;;;;15.47;14.47;;;35.50;99.90;;;;;;4943470;28;20437;-62
2021/06/08 12:03:26;;;;;;;15.13;14.20;;;35.20;99.90;;;;;;4940807;28;20433;-63
2021/06/08 12:05:52;;;;;;;14.03;13.20;;;35.50;99.90;;;;;;4939749;28;20469;-64
2021/06/08 12:08:32;;;;;;;14.90;13.80;;;36.00;99.90;;;;;;4935711;28;20932;-63
2021/06/08 12:10:59;;;;;;;16.20;15.10;;;36.10;99.90;;;;;;4938918;28;21231;-63
2021/06/08 12:13:33;;;;;;;17.53;16.27;;;35.70;99.90;;;;;;4951135;29;20810;-64
2021/06/08 12:15:59;;;;;;;14.90;13.90;;;34.90;99.90;;;;;;4944342;28;20444;-64
2021/06/08 12:18:34;;;;;;;16.03;14.90;;;34.80;99.90;;;;;;4942750;28;20438;-63
2021/06/08 12:21:01;;;;;;;13.97;12.97;;;34.90;99.90;;;;;;4943462;28;20480;-63
2021/06/08 12:23:29;;;;;;;12.83;12.03;;;36.20;99.90;;;;;;4945384;28;20871;-62
2021/06/08 12:26:15;;;;;;;14.13;13.27;;;37.00;99.90;;;;;;4945141;28;20500;-62
2021/06/08 12:28:43;;;;;;;15.37;14.40;;;37.90;99.90;;;;;;4948009;28;20547;-63
2021/06/08 12:31:14;;;;;;;14.53;13.53;;;37.50;99.90;;;;;;4948720;28;20444;-63
2021/06/08 12:33:41;;;;;;;14.65;13.75;;;37.40;99.90;;;;;;4949787;28;20922;-62
2021/06/08 12:36:08;;;;;;;14.07;13.17;;;36.50;99.90;;;;;;4945396;29;20193;-64
2021/06/08 12:38:33;;;;;;;13.82;12.93;;;35.90;99.90;;;;;;4942980;28;20452;-64
2021/06/08 12:41:04;;;;;;;14.57;13.60;;;35.30;99.90;;;;;;4945986;28;20703;-63
2021/06/08 12:43:40;;;;;;;15.13;13.93;;;34.90;99.90;;;;;;4945724;28;20280;-62
2021/06/08 12:46:06;;;;;;;13.80;13.00;;;34.80;99.90;;;;;;4940636;28;20547;-60
2021/06/08 12:48:32;;;;;;;13.57;12.67;;;35.30;99.90;;;;;;4949906;28;20539;-64
2021/06/08 12:50:57;;;;;;;14.60;13.33;;;36.00;99.90;;;;;;4947610;28;20865;-61
2021/06/08 12:53:25;;;;;;;13.73;12.90;;;36.60;99.90;;;;;;4948105;28;20256;-64
2021/06/08 12:55:52;;;;;;;13.77;12.90;;;36.70;99.90;;;;;;4948703;28;20284;-63
2021/06/08 12:58:18;;;;;;;14.30;13.40;;;36.00;99.90;;;;;;4948556;28;20939;-62
2021/06/08 13:00:45;;;;;;;14.67;13.80;;;35.50;99.90;;;;;;4946488;28;20452;-61
2021/06/08 13:03:12;;;;;;;14.90;13.80;;;35.00;99.90;;;;;;4946250;28;21154;-62
2021/06/08 13:05:41;;;;;;;13.57;12.67;;;34.50;99.90;;;;;;4946270;28;20550;-61
2021/06/08 13:08:07;;;;;;;15.43;14.40;;;34.00;99.90;;;;;;4946793;28;20502;-61
2021/06/08 13:10:35;;;;;;;15.30;14.37;;;33.50;99.90;;;;;;4946888;28;20444;-62
2021/06/08 13:13:09;;;;;;;15.37;14.40;;;33.30;99.90;;;;;;4948696;28;20451;-62
2021/06/08 13:15:43;;;;;;;14.83;13.93;;;33.50;99.90;;;;;;4946706;28;20486;-63
2021/06/08 13:18:11;;;;;;;15.50;14.30;;;33.50;99.90;;;;;;4949115;28;20877;-61
2021/06/08 13:20:44;;;;;;;16.17;15.03;;;33.50;99.90;;;;;;4948287;28;20453;-63
2021/06/08 13:23:26;;;;;;;15.60;14.60;;;33.30;99.90;;;;;;4946446;28;20443;-63
2021/06/08 13:26:08;;;;;;;16.20;15.20;;;33.00;99.90;;;;;;4943224;28;21180;-62
2021/06/08 13:28:54;;;;;;;17.10;15.80;;;32.70;99.90;;;;;;4948573;29;20923;-61
2021/06/08 13:31:20;;;;;;;16.63;15.43;;;32.70;99.90;;;;;;4949739;28;20428;-62
2021/06/08 13:33:49;;;;;;;14.83;13.93;;;33.10;99.90;;;;;;4948788;29;20969;-63
2021/06/08 13:36:25;;;;;;;15.67;14.67;;;34.00;99.90;;;;;;4949850;29;20209;-63
2021/06/08 13:38:51;;;;;;;15.00;14.10;;;34.90;99.90;;;;;;4936286;28;20495;-62
2021/06/08 13:41:17;;;;;;;16.20;15.20;;;35.40;99.90;;;;;;4949901;29;20838;-62
2021/06/08 13:43:44;;;;;;;15.90;15.00;;;35.70;99.90;;;;;;4949223;29;20197;-63
2021/06/08 13:46:12;;;;;;;15.10;14.10;;;36.20;99.90;;;;;;4931982;29;20291;-63
2021/06/08 13:48:46;;;;;;;15.90;14.90;;;36.60;99.90;;;;;;4946265;28;21116;-63
2021/06/08 13:51:20;;;;;;;15.35;14.25;;;36.80;99.90;;;;;;4945866;29;20440;-61
2021/06/08 13:54:18;;;;;;;15.93;14.93;;;37.70;99.90;;;;;;4949037;29;20229;-63
2021/06/08 13:57:00;;;;;;;14.57;13.77;;;37.90;99.90;;;;;;4949053;29;20536;-63
2021/06/08 14:02:39;;;;;;;14.80;13.90;;;36.90;99.90;;;;;;4941771;29;20528;-62
2021/06/08 14:05:05;;;;;;;15.27;14.40;;;37.70;99.90;;;;;;4952053;29;21037;-63
2021/06/08 14:07:31;;;;;;;14.77;13.90;;;38.30;99.90;;;;;;4935244;29;20440;-62
2021/06/08 14:09:56;;;;;;;14.20;13.40;;;38.50;99.90;;;;;;4946638;28;20444;-60
2021/06/08 14:12:26;;;;;;;13.90;13.10;;;38.40;99.90;;;;;;4952379;29;20204;-63
2021/06/08 14:15:04;;;;;;;15.27;14.27;;;37.20;99.90;;;;;;4952387;29;20200;-62
2021/06/08 14:17:29;;;;;;;15.52;14.63;;;36.50;99.90;;;;;;4951213;29;20440;-63
2021/06/08 14:19:55;;;;;;;15.73;14.73;;;36.30;99.90;;;;;;4953002;29;20682;-62
2021/06/08 14:22:20;;;;;;;16.63;15.70;;;36.70;99.90;;;;;;4952033;29;20942;-62
2021/06/08 14:24:46;;;;;;;15.97;14.87;;;36.60;99.90;;;;;;4950506;28;20213;-62
2021/06/08 14:27:15;;;;;;;16.27;15.17;;;36.10;99.90;;;;;;4951640;29;20428;-62
2021/06/08 14:29:42;;;;;;;15.43;14.43;;;35.50;99.90;;;;;;4950990;28;20247;-63
2021/06/08 14:32:08;;;;;;;17.00;16.00;;;34.70;99.90;;;;;;4951568;29;20569;-64
2021/06/08 14:34:34;;;;;;;16.10;15.10;;;34.00;99.90;;;;;;4942972;29;20492;-63
2021/06/08 14:36:59;;;;;;;17.27;16.13;;;33.40;99.90;;;;;;4935129;29;20445;-63
2021/06/08 14:39:26;;;;;;;15.60;14.70;;;33.00;99.90;;;;;;4951168;28;20215;-63
2021/06/08 14:41:52;;;;;;;16.07;15.07;;;32.70;99.90;;;;;;4950412;28;20208;-64
2021/06/08 14:44:17;;;;;;;16.13;15.13;;;33.00;99.90;;;;;;4938876;29;20475;-64
2021/06/08 14:46:45;;;;;;;16.67;15.57;;;32.90;99.90;;;;;;4951360;28;20468;-64
2021/06/08 14:49:12;;;;;;;17.00;15.57;;;32.10;99.90;;;;;;4952308;29;20185;-64
2021/06/08 14:51:38;;;;;;;16.03;14.83;;;31.40;99.90;;;;;;4949242;28;20444;-63
2021/06/08 14:54:05;;;;;;;16.37;15.17;;;30.80;99.90;;;;;;4947691;28;21121;-63
2021/06/08 14:56:30;;;;;;;16.80;15.27;;;30.00;99.90;;;;;;4951582;29;20421;-64
2021/06/08 14:58:56;;;;;;;17.03;15.80;;;29.30;99.90;;;;;;4952164;29;20435;-63
2021/06/08 15:01:21;;;;;;;16.97;15.67;;;28.50;99.90;;;;;;4951107;29;20197;-63
2021/06/08 15:03:48;;;;;;;16.13;15.03;;;28.10;99.90;;;;;;4951304;29;20189;-64
2021/06/08 15:06:14;;;;;;;16.60;15.50;;;27.60;99.90;;;;;;4950052;29;20216;-64
2021/06/08 15:08:41;;;;;;;16.57;15.30;;;27.30;99.90;;;;;;4949862;29;20945;-64
2021/06/08 15:11:07;;;;;;;17.33;16.10;;;26.90;1.00;;;;;;4938171;29;21092;-57
2021/06/08 15:13:34;;;;;;;16.50;15.30;;;26.80;99.90;;;;;;4949866;28;20549;-63
2021/06/08 15:15:59;;;;;;;16.63;15.33;;;26.60;78.40;;;;;;4951686;29;20271;-64
2021/06/08 15:18:25;;;;;;;16.93;15.63;;;26.60;1.00;;;;;;4950799;29;21240;-63
2021/06/08 15:20:51;;;;;;;14.97;13.87;;;26.80;55.50;;;;;;4950465;29;20189;-63
2021/06/08 15:23:17;;;;;;;15.63;14.40;;;27.40;99.90;;;;;;4946107;28;20261;-60
2021/06/08 15:25:43;;;;;;;12.97;12.17;;;28.10;99.90;;;;;;4940006;28;20703;-63
2021/06/08 15:28:09;;;;;;;14.90;13.80;;;28.90;99.90;;;;;;4951047;29;20425;-64
2021/06/08 15:30:35;;;;;;;14.83;13.90;;;29.50;99.90;;;;;;4947048;28;20530;-64
2021/06/08 15:33:01;;;;;;;15.67;14.67;;;29.60;99.90;;;;;;4948663;29;20189;-63
2021/06/08 15:35:27;;;;;;;16.07;15.07;;;29.40;99.90;;;;;;4949788;28;20456;-64
2021/06/08 15:37:55;;;;;;;14.60;13.67;;;29.30;99.90;;;;;;4951080;29;20219;-63
2021/06/08 15:40:21;;;;;;;15.00;14.00;;;28.80;99.90;;;;;;4944857;28;20860;-66
2021/06/08 15:42:47;;;;;;;15.03;14.03;;;28.30;99.90;;;;;;4945206;29;20437;-65
2021/06/08 15:45:13;;;;;;;15.00;14.00;;;28.00;99.90;;;;;;4938296;28;20468;-64
2021/06/08 15:47:39;;;;;;;14.33;13.33;;;27.60;99.90;;;;;;4934339;28;20197;-63
2021/06/08 15:50:05;;;;;;;14.97;13.80;;;27.40;99.90;;;;;;4948246;28;20445;-63
2021/06/08 15:52:31;;;;;;;16.00;14.90;;;27.20;99.90;;;;;;4949541;28;20233;-64
2021/06/08 15:54:56;;;;;;;17.13;15.77;;;26.90;99.90;;;;;;4932415;29;20453;-64
2021/06/08 15:57:22;;;;;;;15.50;14.30;;;26.60;99.90;;;;;;4944596;28;20190;-64
2021/06/08 15:59:47;;;;;;;15.17;14.03;;;26.40;1.00;;;;;;4942717;29;20862;-64
2021/06/08 16:02:13;;;;;;;16.23;14.97;;;26.10;1.00;;;;;;4949093;28;20189;-63
2021/06/08 16:04:38;;;;;;;16.57;15.17;;;25.90;1.00;;;;;;4949583;28;20268;-64
2021/06/08 16:07:04;;;;;;;16.33;15.10;;;25.70;88.40;;;;;;4948714;28;20227;-64
2021/06/08 16:09:30;;;;;;;15.63;14.33;;;25.50;84.90;;;;;;4950311;28;20185;-64
2021/06/08 16:11:57;;;;;;;15.77;14.67;;;25.30;87.30;;;;;;4950021;28;20188;-63
2021/06/08 16:14:23;;;;;;;16.53;15.33;;;25.20;90.50;;;;;;4949535;28;20296;-64
2021/06/08 16:16:49;;;;;;;16.77;15.57;;;24.90;1.00;;;;;;4941323;28;20483;-64
2021/06/08 16:19:16;;;;;;;17.10;15.80;;;24.70;1.00;;;;;;4949671;28;20966;-63
2021/06/08 16:21:42;;;;;;;17.90;16.30;;;24.50;1.00;;;;;;4949551;28;20189;-63
2021/06/08 16:24:08;;;;;;;17.20;15.87;;;24.30;99.90;;;;;;4948447;28;20492;-63
2021/06/08 16:26:35;;;;;;;16.73;15.33;;;24.10;99.90;;;;;;4948318;28;20449;-63
2021/06/08 16:29:02;;;;;;;17.30;16.00;;;24.20;31.80;;;;;;4950306;29;20181;-62
2021/06/08 16:31:28;;;;;;;18.43;17.03;;;24.20;99.90;;;;;;4948262;28;20441;-62
2021/06/08 16:33:53;;;;;;;17.03;15.53;;;24.30;99.90;;;;;;4953952;28;20446;-63
2021/06/08 16:36:21;;;;;;;17.03;15.73;;;24.40;99.20;;;;;;4951344;28;20296;-62
2021/06/08 16:38:47;;;;;;;18.10;16.77;;;24.70;97.10;;;;;;4948233;28;20215;-61
2021/06/08 16:41:13;;;;;;;18.47;17.10;;;24.80;98.00;;;;;;4948307;28;20440;-62
2021/06/08 16:43:39;;;;;;;17.83;16.33;;;24.90;96.50;;;;;;4947576;28;20566;-63
2021/06/08 16:46:05;;;;;;;16.80;15.60;;;25.10;96.60;;;;;;4947795;29;20218;-63
2021/06/08 16:48:32;;;;;;;17.23;15.83;;;25.40;96.10;;;;;;4945822;28;20436;-64
2021/06/08 16:53:31;;;;;;;17.50;16.00;;;25.60;95.60;;;;;;4934659;28;20528;-64
2021/06/08 16:55:56;;;;;;;17.87;16.57;;;25.70;95.70;;;;;;4936552;28;20445;-64
2021/06/08 16:58:23;;;;;;;16.23;14.73;;;25.70;95.20;;;;;;4938966;28;20645;-64
2021/06/08 17:00:50;;;;;;;17.47;16.20;;;25.70;94.70;;;;;;4935856;29;20241;-65
2021/06/08 17:03:17;;;;;;;17.67;16.37;;;25.70;94.70;;;;;;4928571;29;20452;-65
2021/06/08 17:05:43;;;;;;;17.10;15.90;;;25.60;93.70;;;;;;4937655;28;20473;-65
2021/06/08 17:08:09;;;;;;;17.47;16.17;;;25.60;93.40;;;;;;4940273;29;20444;-65
2021/06/08 17:10:35;;;;;;;17.30;16.07;;;25.90;92.70;;;;;;4951717;28;20184;-65
2021/06/08 17:13:02;;;;;;;17.00;15.67;;;25.90;92.80;;;;;;4948252;28;20441;-64
2021/06/08 17:15:28;;;;;;;16.77;15.57;;;26.10;91.50;;;;;;4948862;28;20782;-65
2021/06/08 17:17:53;;;;;;;16.73;15.43;;;26.10;91.00;;;;;;4949340;29;20468;-63
2021/06/08 17:20:19;;;;;;;17.00;15.50;;;26.00;91.00;;;;;;4939354;28;20486;-63
2021/06/08 17:22:45;;;;;;;16.23;15.03;;;26.20;91.40;;;;;;4942597;28;20679;-62
2021/06/08 17:25:11;;;;;;;16.10;14.90;;;26.30;90.10;;;;;;4944171;28;20217;-63
2021/06/08 17:27:37;;;;;;;14.30;13.23;;;26.30;88.90;;;;;;4931865;28;20193;-62
2021/06/08 17:30:05;;;;;;;16.70;15.30;;;26.30;88.10;;;;;;4947502;28;20888;-63
2021/06/08 17:32:30;;;;;;;15.80;14.53;;;26.30;89.40;;;;;;4947935;28;20441;-63
2021/06/08 17:34:56;;;;;;;16.37;15.13;;;25.90;90.20;;;;;;4949767;29;20438;-64
2021/06/08 17:37:22;;;;;;;16.50;15.20;;;25.90;90.20;;;;;;4950912;28;20225;-65
2021/06/08 17:39:47;;;;;;;15.80;14.70;;;26.00;90.00;;;;;;4952085;28;21035;-64
2021/06/08 17:42:13;;;;;;;14.03;13.03;;;26.00;89.70;;;;;;4945608;28;20659;-64
2021/06/08 17:44:39;;;;;;;15.83;14.73;;;25.80;89.80;;;;;;4949999;28;20578;-60
2021/06/08 17:47:05;;;;;;;16.90;15.70;;;25.90;90.10;;;;;;4952931;28;20723;-64
2021/06/08 17:49:31;;;;;;;16.47;15.30;;;25.80;90.40;;;;;;4952610;28;20471;-64
2021/06/08 17:51:57;;;;;;;15.90;14.70;;;25.60;90.50;;;;;;4952806;29;20437;-64
2021/06/08 17:54:26;;;;;;;16.60;15.40;;;25.40;91.80;;;;;;4952167;28;20224;-62
2021/06/08 17:56:52;;;;;;;16.33;15.03;;;25.30;92.30;;;;;;4953013;28;20201;-62
2021/06/08 17:59:18;;;;;;;16.17;14.90;;;25.20;92.40;;;;;;4954542;28;20890;-64
2021/06/08 18:01:46;;;;;;;15.37;14.07;;;25.10;92.80;;;;;;4952809;29;20801;-63
2021/06/08 18:04:12;;;;;;;16.30;15.00;;;24.90;93.40;;;;;;4950956;28;20437;-64
2021/06/08 18:06:39;;;;;;;16.60;15.37;;;24.80;93.30;;;;;;4951031;28;20437;-64
2021/06/08 18:09:06;;;;;;;16.23;15.03;;;24.70;94.00;;;;;;4949901;28;20425;-61
2021/06/08 18:11:32;;;;;;;16.50;15.40;;;24.60;94.40;;;;;;4948420;28;20435;-62
2021/06/08 18:13:57;;;;;;;16.23;14.93;;;24.50;95.40;;;;;;4952001;29;20472;-63
2021/06/08 18:16:33;;;;;;;16.30;15.00;;;24.40;95.50;;;;;;4949846;28;20440;-62
2021/06/08 18:21:51;;;;;;;16.63;15.43;;;24.30;97.20;;;;;;4920084;29;20451;-63
2021/06/08 18:24:17;;;;;;;16.40;15.20;;;24.10;96.90;;;;;;4950450;28;20440;-63
2021/06/08 18:26:44;;;;;;;16.63;15.43;;;24.00;97.40;;;;;;4951528;29;20248;-63
2021/06/08 18:29:11;;;;;;;16.43;15.13;;;24.00;98.50;;;;;;4950625;28;20236;-63
2021/06/08 18:31:38;;;;;;;16.57;15.10;;;23.90;98.90;;;;;;4952720;29;20488;-59
2021/06/08 18:34:03;;;;;;;15.57;14.37;;;23.80;99.10;;;;;;4950857;28;20540;-62
2021/06/08 18:36:29;;;;;;;16.40;15.10;;;23.70;99.70;;;;;;4947485;28;20967;-62